Dobrodošli na spletni strani vremenske postaje Senovo. Vse informacije so informativnega značaja, saj vremenska postaja ni del državne mreže meteoroloških postaj. AKTUALNIH OBVESTIL NI.


Sneg/Led Od: 23-02-2018 00:00 Do: 23:59 Opozorilo za: Sneg/Led Stopnja: Rumena info button

Pogled proti Armezu več informacij Pogled proti Armezu


Lisca več informacij Lisca


Radar strel več informacij blitzortung!


opozorilo za sneg/led več informacij rain snow radar


Obiščite še:

Template documentation
and downloads

And another site



Weather Underground, zgodovina - Tekstovno

Dnevni povzetek za Januar 29, 2018 Enote:  Obe    Angleško   Metrično
« Predhodni Dan
Naslednji Dan »
Dnevni Tedenski Mesečni Letni Po meri
  Višja: Nižja: Povprečje:
Temperatura: TemperatureC °F /  -17.8 °C -1.1 °F /  -18.4 °C 2.3 °F /  -16.5 °C
Točka rosišča: DewpointC °F /  -17.8 °C -2.3 °F /  -19.1 °C 1.1 °F /  -17.2 °C
Vlažnost: Humidity % 82 % 92 %
Hitrost vetra: WindSpeedKMH mph /  0 km/h - 0.8 mph /  1.3 km/h
Sunki vetra: WindSpeedGustKMH mph /  0 km/h - -
Veter:- - SSW
Zračni tlak: PressurehPa in /  0 hPa 1021.9 in /  34601.5 hPa -
Padavine: 0.0 in /  0 mm    
Historical Graphs
 
 
Tabelarni podarki za Januar 29, 2018
Čas Temperatura Točka rosišča Zračni tlak Veter Hitrost vetra Sunki vetra Vlažnost Intenziteta padavin (urna)
TemperatureC °F /  -17.8 °C DewpointC °F /  -17.8 °C PressurehPa in /  0 hPa Calm     Humidity % HourlyPrecipMM in /  0 mm
00:04 0.5 °F /  -17.5 °C -0.5 °F /  -18.1 °C 1031.0 in /  34909.7 hPa Calm     93 % 0.0 in /  0 mm
00:09 0.6 °F /  -17.4 °C -0.4 °F /  -18 °C 1031.0 in /  34909.7 hPa Calm     93 % 0.0 in /  0 mm
00:14 0.6 °F /  -17.4 °C -0.3 °F /  -17.9 °C 1032.1 in /  34946.9 hPa Calm     94 % 0.0 in /  0 mm
00:19 0.6 °F /  -17.4 °C -0.3 °F /  -17.9 °C 1032.1 in /  34946.9 hPa Calm     94 % 0.0 in /  0 mm
00:24 0.6 °F /  -17.4 °C -0.3 °F /  -17.9 °C 1032.1 in /  34946.9 hPa Calm     94 % 0.0 in /  0 mm
00:29 0.6 °F /  -17.4 °C -0.3 °F /  -17.9 °C 1032.1 in /  34946.9 hPa Calm     94 % 0.0 in /  0 mm
00:34 0.6 °F /  -17.4 °C -0.3 °F /  -17.9 °C 1032.1 in /  34946.9 hPa Calm     94 % 0.0 in /  0 mm
00:39 0.7 °F /  -17.4 °C -0.2 °F /  -17.9 °C 1032.1 in /  34946.9 hPa Calm     94 % 0.0 in /  0 mm
00:44 0.7 °F /  -17.4 °C -0.2 °F /  -17.9 °C 1030.0 in /  34875.8 hPa Calm     94 % 0.0 in /  0 mm
00:49 0.7 °F /  -17.4 °C -0.2 °F /  -17.9 °C 1030.0 in /  34875.8 hPa Calm     94 % 0.0 in /  0 mm
00:54 0.7 °F /  -17.4 °C -0.2 °F /  -17.9 °C 1030.0 in /  34875.8 hPa Calm     94 % 0.0 in /  0 mm
00:59 0.7 °F /  -17.4 °C -0.2 °F /  -17.9 °C 1032.1 in /  34946.9 hPa Calm     94 % 0.0 in /  0 mm
01:04 0.6 °F /  -17.4 °C -0.3 °F /  -17.9 °C 1032.1 in /  34946.9 hPa Calm     94 % 0.0 in /  0 mm
01:09 0.6 °F /  -17.4 °C -0.3 °F /  -17.9 °C 1032.1 in /  34946.9 hPa Calm     94 % 0.0 in /  0 mm
01:14 0.6 °F /  -17.4 °C -0.3 °F /  -17.9 °C 1032.1 in /  34946.9 hPa Calm     94 % 0.0 in /  0 mm
01:19 0.6 °F /  -17.4 °C -0.1 °F /  -17.8 °C 1032.1 in /  34946.9 hPa WNW 0.3 mph /  0.5 km/h 4.0 mph /  6.4 km/h 95 % 0.0 in /  0 mm
01:24 0.6 °F /  -17.4 °C -0.1 °F /  -17.8 °C 1032.1 in /  34946.9 hPa WNW 0.5 mph /  0.8 km/h 4.0 mph /  6.4 km/h 95 % 0.0 in /  0 mm
01:29 0.6 °F /  -17.4 °C -0.1 °F /  -17.8 °C 1030.0 in /  34875.8 hPa North 0.2 mph /  0.3 km/h   95 % 0.0 in /  0 mm
01:34 0.6 °F /  -17.4 °C -0.1 °F /  -17.8 °C 1030.0 in /  34875.8 hPa Calm     95 % 0.0 in /  0 mm
01:39 0.5 °F /  -17.5 °C -0.2 °F /  -17.9 °C 1030.0 in /  34875.8 hPa Calm     95 % 0.0 in /  0 mm
01:44 0.5 °F /  -17.5 °C -0.2 °F /  -17.9 °C 1031.0 in /  34909.7 hPa NW 0.2 mph /  0.3 km/h 3.2 mph /  5.1 km/h 95 % 0.0 in /  0 mm
01:49 0.4 °F /  -17.6 °C -0.3 °F /  -17.9 °C 1031.0 in /  34909.7 hPa NW 0.5 mph /  0.8 km/h 3.2 mph /  5.1 km/h 95 % 0.0 in /  0 mm
01:54 0.4 °F /  -17.6 °C -0.3 °F /  -17.9 °C 1031.0 in /  34909.7 hPa NW 0.3 mph /  0.5 km/h 2.1 mph /  3.4 km/h 95 % 0.0 in /  0 mm
01:59 0.4 °F /  -17.6 °C -0.3 °F /  -17.9 °C 1032.1 in /  34946.9 hPa Calm     95 % 0.0 in /  0 mm
02:04 0.4 °F /  -17.6 °C -0.3 °F /  -17.9 °C 1032.1 in /  34946.9 hPa Calm     95 % 0.0 in /  0 mm
02:09 0.4 °F /  -17.6 °C -0.3 °F /  -17.9 °C 1032.1 in /  34946.9 hPa Calm     95 % 0.0 in /  0 mm
02:14 0.4 °F /  -17.6 °C -0.3 °F /  -17.9 °C 1032.1 in /  34946.9 hPa Calm     95 % 0.0 in /  0 mm
02:19 0.3 °F /  -17.6 °C -0.4 °F /  -18 °C 1032.1 in /  34946.9 hPa Calm     95 % 0.0 in /  0 mm
02:24 0.3 °F /  -17.6 °C -0.4 °F /  -18 °C 1032.1 in /  34946.9 hPa Calm     95 % 0.0 in /  0 mm
02:29 0.3 °F /  -17.6 °C -0.4 °F /  -18 °C 1031.0 in /  34909.7 hPa Calm     95 % 0.0 in /  0 mm
02:34 0.2 °F /  -17.7 °C -0.5 °F /  -18.1 °C 1031.0 in /  34909.7 hPa Calm     95 % 0.0 in /  0 mm
02:39 0.2 °F /  -17.7 °C -0.5 °F /  -18.1 °C 1031.0 in /  34909.7 hPa Calm     95 % 0.0 in /  0 mm
02:44 0.1 °F /  -17.7 °C -0.6 °F /  -18.1 °C 1031.0 in /  34909.7 hPa Calm     95 % 0.0 in /  0 mm
02:49 0.1 °F /  -17.7 °C -0.6 °F /  -18.1 °C 1031.0 in /  34909.7 hPa Calm     95 % 0.0 in /  0 mm
02:54 0.1 °F /  -17.7 °C -0.6 °F /  -18.1 °C 1031.0 in /  34909.7 hPa Calm     95 % 0.0 in /  0 mm
02:59 0.1 °F /  -17.7 °C -0.6 °F /  -18.1 °C 1031.0 in /  34909.7 hPa SW 0.2 mph /  0.3 km/h 2.6 mph /  4.2 km/h 95 % 0.0 in /  0 mm
03:04 0.0 °F /  -17.8 °C -0.7 °F /  -18.2 °C 1031.0 in /  34909.7 hPa SW 0.5 mph /  0.8 km/h 2.6 mph /  4.2 km/h 95 % 0.0 in /  0 mm
03:09 0.0 °F /  -17.8 °C -0.7 °F /  -18.2 °C 1031.0 in /  34909.7 hPa WSW 0.3 mph /  0.5 km/h 2.6 mph /  4.2 km/h 95 % 0.0 in /  0 mm
03:14 0.0 °F /  -17.8 °C -0.7 °F /  -18.2 °C 1031.0 in /  34909.7 hPa Calm     95 % 0.0 in /  0 mm
03:19 -0.1 °F /  -17.8 °C -0.8 °F /  -18.2 °C 1031.0 in /  34909.7 hPa Calm     95 % 0.0 in /  0 mm
03:24 -0.1 °F /  -17.8 °C -0.8 °F /  -18.2 °C 1031.0 in /  34909.7 hPa Calm     95 % 0.0 in /  0 mm
03:29 -0.1 °F /  -17.8 °C -0.8 °F /  -18.2 °C 1031.0 in /  34909.7 hPa Calm     95 % 0.0 in /  0 mm
03:34 -0.1 °F /  -17.8 °C -0.8 °F /  -18.2 °C 1031.0 in /  34909.7 hPa Calm     95 % 0.0 in /  0 mm
03:39 -0.1 °F /  -17.8 °C -0.8 °F /  -18.2 °C 1031.0 in /  34909.7 hPa Calm     95 % 0.0 in /  0 mm
03:44 -0.1 °F /  -17.8 °C -0.8 °F /  -18.2 °C 1030.0 in /  34875.8 hPa Calm     95 % 0.0 in /  0 mm
03:49 -0.1 °F /  -17.8 °C -0.8 °F /  -18.2 °C 1030.0 in /  34875.8 hPa West 0.2 mph /  0.3 km/h 4.0 mph /  6.4 km/h 95 % 0.0 in /  0 mm
03:54 -0.1 °F /  -17.8 °C -0.8 °F /  -18.2 °C 1030.0 in /  34875.8 hPa West 1.8 mph /  2.9 km/h 4.3 mph /  6.9 km/h 95 % 0.0 in /  0 mm
03:59 -0.1 °F /  -17.8 °C -0.8 °F /  -18.2 °C 1030.0 in /  34875.8 hPa West 1.8 mph /  2.9 km/h 4.3 mph /  6.9 km/h 95 % 0.0 in /  0 mm
04:04 -0.1 °F /  -17.8 °C -0.8 °F /  -18.2 °C 1030.0 in /  34875.8 hPa West 1.1 mph /  1.8 km/h 4.0 mph /  6.4 km/h 95 % 0.0 in /  0 mm
04:09 -0.1 °F /  -17.8 °C -0.8 °F /  -18.2 °C 1030.0 in /  34875.8 hPa WSW 2.3 mph /  3.7 km/h 4.0 mph /  6.4 km/h 95 % 0.0 in /  0 mm
04:14 -0.1 °F /  -17.8 °C -0.8 °F /  -18.2 °C 1030.0 in /  34875.8 hPa SW 1.3 mph /  2.1 km/h 4.0 mph /  6.4 km/h 95 % 0.0 in /  0 mm
04:19 -0.2 °F /  -17.9 °C -0.9 °F /  -18.3 °C 1030.0 in /  34875.8 hPa SW 0.2 mph /  0.3 km/h 2.6 mph /  4.2 km/h 95 % 0.0 in /  0 mm
04:24 -0.2 °F /  -17.9 °C -0.9 °F /  -18.3 °C 1030.0 in /  34875.8 hPa SW 0.2 mph /  0.3 km/h 2.6 mph /  4.2 km/h 95 % 0.0 in /  0 mm
04:29 -0.2 °F /  -17.9 °C -0.9 °F /  -18.3 °C 1030.0 in /  34875.8 hPa Calm     95 % 0.0 in /  0 mm
04:34 -0.2 °F /  -17.9 °C -0.9 °F /  -18.3 °C 1030.0 in /  34875.8 hPa Calm     95 % 0.0 in /  0 mm
04:39 -0.2 °F /  -17.9 °C -0.9 °F /  -18.3 °C 1030.0 in /  34875.8 hPa Calm     95 % 0.0 in /  0 mm
04:44 -0.2 °F /  -17.9 °C -0.9 °F /  -18.3 °C 1030.0 in /  34875.8 hPa Calm     95 % 0.0 in /  0 mm
04:49 -0.3 °F /  -17.9 °C -1.0 °F /  -18.3 °C 1030.0 in /  34875.8 hPa Calm     95 % 0.0 in /  0 mm
04:54 -0.3 °F /  -17.9 °C -1.0 °F /  -18.3 °C 1030.0 in /  34875.8 hPa Calm     95 % 0.0 in /  0 mm
04:59 -0.3 °F /  -17.9 °C -1.0 °F /  -18.3 °C 1030.0 in /  34875.8 hPa Calm     95 % 0.0 in /  0 mm
05:04 -0.2 °F /  -17.9 °C -0.9 °F /  -18.3 °C 1030.0 in /  34875.8 hPa Calm     95 % 0.0 in /  0 mm
05:09 -0.2 °F /  -17.9 °C -0.9 °F /  -18.3 °C 1030.0 in /  34875.8 hPa Calm     95 % 0.0 in /  0 mm
05:14 -0.2 °F /  -17.9 °C -0.9 °F /  -18.3 °C 1030.0 in /  34875.8 hPa Calm     95 % 0.0 in /  0 mm
05:19 -0.3 °F /  -17.9 °C -1.0 °F /  -18.3 °C 1030.0 in /  34875.8 hPa Calm     95 % 0.0 in /  0 mm
05:24 -0.3 °F /  -17.9 °C -1.0 °F /  -18.3 °C 1030.0 in /  34875.8 hPa Calm     95 % 0.0 in /  0 mm
05:29 -0.3 °F /  -17.9 °C -1.0 °F /  -18.3 °C 1029.0 in /  34841.9 hPa Calm     95 % 0.0 in /  0 mm
05:34 -0.3 °F /  -17.9 °C -1.0 °F /  -18.3 °C 1029.0 in /  34841.9 hPa Calm     95 % 0.0 in /  0 mm
05:39 -0.4 °F /  -18 °C -1.1 °F /  -18.4 °C 1029.0 in /  34841.9 hPa Calm     95 % 0.0 in /  0 mm
05:44 -0.4 °F /  -18 °C -1.1 °F /  -18.4 °C 1029.0 in /  34841.9 hPa Calm     95 % 0.0 in /  0 mm
05:49 -0.5 °F /  -18.1 °C -1.2 °F /  -18.4 °C 1029.0 in /  34841.9 hPa Calm     95 % 0.0 in /  0 mm
05:54 -0.5 °F /  -18.1 °C -1.2 °F /  -18.4 °C 1029.0 in /  34841.9 hPa Calm     95 % 0.0 in /  0 mm
05:59 -0.5 °F /  -18.1 °C -1.2 °F /  -18.4 °C 1030.0 in /  34875.8 hPa Calm     95 % 0.0 in /  0 mm
06:04 -0.5 °F /  -18.1 °C -1.2 °F /  -18.4 °C 1030.0 in /  34875.8 hPa Calm     95 % 0.0 in /  0 mm
06:09 -0.5 °F /  -18.1 °C -1.2 °F /  -18.4 °C 1030.0 in /  34875.8 hPa Calm     95 % 0.0 in /  0 mm
06:14 -0.6 °F /  -18.1 °C -1.3 °F /  -18.5 °C 1030.0 in /  34875.8 hPa Calm     95 % 0.0 in /  0 mm
06:19 -0.6 °F /  -18.1 °C -1.3 °F /  -18.5 °C 1030.0 in /  34875.8 hPa Calm     95 % 0.0 in /  0 mm
06:24 -0.6 °F /  -18.1 °C -1.3 °F /  -18.5 °C 1030.0 in /  34875.8 hPa Calm     95 % 0.0 in /  0 mm
06:29 -0.6 °F /  -18.1 °C -1.3 °F /  -18.5 °C 1029.0 in /  34841.9 hPa Calm     95 % 0.0 in /  0 mm
06:34 -0.7 °F /  -18.2 °C -1.4 °F /  -18.6 °C 1029.0 in /  34841.9 hPa Calm     95 % 0.0 in /  0 mm
06:39 -0.7 °F /  -18.2 °C -1.4 °F /  -18.6 °C 1029.0 in /  34841.9 hPa Calm     95 % 0.0 in /  0 mm
06:44 -0.8 °F /  -18.2 °C -1.5 °F /  -18.6 °C 1030.0 in /  34875.8 hPa Calm     95 % 0.0 in /  0 mm
06:49 -0.8 °F /  -18.2 °C -1.5 °F /  -18.6 °C 1030.0 in /  34875.8 hPa Calm     95 % 0.0 in /  0 mm
06:54 -0.9 °F /  -18.3 °C -1.6 °F /  -18.7 °C 1030.0 in /  34875.8 hPa Calm     95 % 0.0 in /  0 mm
06:59 -0.9 °F /  -18.3 °C -1.6 °F /  -18.7 °C 1030.0 in /  34875.8 hPa ENE 1.0 mph /  1.6 km/h 4.3 mph /  6.9 km/h 95 % 0.0 in /  0 mm
07:04 -0.9 °F /  -18.3 °C -1.6 °F /  -18.7 °C 1030.0 in /  34875.8 hPa ENE 1.0 mph /  1.6 km/h 4.3 mph /  6.9 km/h 95 % 0.0 in /  0 mm
07:09 -0.9 °F /  -18.3 °C -1.6 °F /  -18.7 °C 1030.0 in /  34875.8 hPa WSW 0.2 mph /  0.3 km/h 2.1 mph /  3.4 km/h 95 % 0.0 in /  0 mm
07:14 -1.0 °F /  -18.3 °C -1.6 °F /  -18.7 °C 1031.0 in /  34909.7 hPa WSW 0.8 mph /  1.3 km/h 4.0 mph /  6.4 km/h 96 % 0.0 in /  0 mm
07:19 -1.0 °F /  -18.3 °C -1.6 °F /  -18.7 °C 1031.0 in /  34909.7 hPa WSW 0.6 mph /  1 km/h 4.0 mph /  6.4 km/h 96 % 0.0 in /  0 mm
07:24 -1.0 °F /  -18.3 °C -1.6 °F /  -18.7 °C 1031.0 in /  34909.7 hPa Calm     96 % 0.0 in /  0 mm
07:29 -1.0 °F /  -18.3 °C -1.6 °F /  -18.7 °C 1031.0 in /  34909.7 hPa Calm     96 % 0.0 in /  0 mm
07:34 -1.0 °F /  -18.3 °C -1.6 °F /  -18.7 °C 1031.0 in /  34909.7 hPa Calm   1.8 mph /  2.9 km/h 96 % 0.0 in /  0 mm
07:39 -1.0 °F /  -18.3 °C -1.6 °F /  -18.7 °C 1031.0 in /  34909.7 hPa NW 0.3 mph /  0.5 km/h 3.2 mph /  5.1 km/h 96 % 0.0 in /  0 mm
07:44 -1.0 °F /  -18.3 °C -1.6 °F /  -18.7 °C 1031.0 in /  34909.7 hPa West 1.0 mph /  1.6 km/h 4.3 mph /  6.9 km/h 96 % 0.0 in /  0 mm
07:49 -1.0 °F /  -18.3 °C -1.6 °F /  -18.7 °C 1031.0 in /  34909.7 hPa West 2.4 mph /  3.9 km/h 4.3 mph /  6.9 km/h 96 % 0.0 in /  0 mm
07:54 -1.1 °F /  -18.4 °C -1.7 °F /  -18.7 °C 1031.0 in /  34909.7 hPa West 2.6 mph /  4.2 km/h 4.0 mph /  6.4 km/h 96 % 0.0 in /  0 mm
07:59 -1.1 °F /  -18.4 °C -1.7 °F /  -18.7 °C 1031.0 in /  34909.7 hPa West 1.4 mph /  2.3 km/h 3.5 mph /  5.6 km/h 96 % 0.0 in /  0 mm
08:04 -1.1 °F /  -18.4 °C -1.7 °F /  -18.7 °C 1031.0 in /  34909.7 hPa NW 0.5 mph /  0.8 km/h 3.2 mph /  5.1 km/h 96 % 0.0 in /  0 mm
08:09 -1.0 °F /  -18.3 °C -1.6 °F /  -18.7 °C 1031.0 in /  34909.7 hPa ENE 0.2 mph /  0.3 km/h 3.2 mph /  5.1 km/h 96 % 0.0 in /  0 mm
08:14 -1.0 °F /  -18.3 °C -1.6 °F /  -18.7 °C 1031.0 in /  34909.7 hPa ENE 0.3 mph /  0.5 km/h 3.2 mph /  5.1 km/h 96 % 0.0 in /  0 mm
08:19 -1.0 °F /  -18.3 °C -1.6 °F /  -18.7 °C 1031.0 in /  34909.7 hPa ENE 0.2 mph /  0.3 km/h 1.4 mph /  2.3 km/h 96 % 0.0 in /  0 mm
08:24 -0.9 °F /  -18.3 °C -1.6 °F /  -18.7 °C 1031.0 in /  34909.7 hPa Calm     95 % 0.0 in /  0 mm
08:29 -0.9 °F /  -18.3 °C -1.6 °F /  -18.7 °C 1031.0 in /  34909.7 hPa Calm     95 % 0.0 in /  0 mm
08:34 -0.8 °F /  -18.2 °C -1.5 °F /  -18.6 °C 1031.0 in /  34909.7 hPa Calm     95 % 0.0 in /  0 mm
08:39 -0.7 °F /  -18.2 °C -1.3 °F /  -18.5 °C 1031.0 in /  34909.7 hPa Calm     96 % 0.0 in /  0 mm
08:44 -0.6 °F /  -18.1 °C -1.2 °F /  -18.4 °C 1031.0 in /  34909.7 hPa Calm     96 % 0.0 in /  0 mm
08:49 -0.6 °F /  -18.1 °C -1.2 °F /  -18.4 °C 1031.0 in /  34909.7 hPa Calm     96 % 0.0 in /  0 mm
08:54 -0.6 °F /  -18.1 °C -1.2 °F /  -18.4 °C 1031.0 in /  34909.7 hPa NNW 0.2 mph /  0.3 km/h 1.8 mph /  2.9 km/h 96 % 0.0 in /  0 mm
08:59 -0.5 °F /  -18.1 °C -1.1 °F /  -18.4 °C 1031.0 in /  34909.7 hPa ENE 0.2 mph /  0.3 km/h 2.6 mph /  4.2 km/h 96 % 0.0 in /  0 mm
09:04 -0.5 °F /  -18.1 °C -1.1 °F /  -18.4 °C 1031.0 in /  34909.7 hPa East 0.8 mph /  1.3 km/h 4.0 mph /  6.4 km/h 96 % 0.0 in /  0 mm
09:09 -0.4 °F /  -18 °C -0.9 °F /  -18.3 °C 1031.0 in /  34909.7 hPa East 1.8 mph /  2.9 km/h 4.0 mph /  6.4 km/h 96 % 0.0 in /  0 mm
09:14 -0.2 °F /  -17.9 °C -0.8 °F /  -18.2 °C 1031.0 in /  34909.7 hPa East 1.0 mph /  1.6 km/h 4.0 mph /  6.4 km/h 96 % 0.0 in /  0 mm
09:19 -0.2 °F /  -17.9 °C -0.8 °F /  -18.2 °C 1031.0 in /  34909.7 hPa Calm     96 % 0.0 in /  0 mm
09:24 -0.2 °F /  -17.9 °C -0.8 °F /  -18.2 °C 1031.0 in /  34909.7 hPa Calm     96 % 0.0 in /  0 mm
09:29 0.0 °F /  -17.8 °C -0.6 °F /  -18.1 °C 1031.0 in /  34909.7 hPa Calm   2.6 mph /  4.2 km/h 96 % 0.0 in /  0 mm
09:34 0.1 °F /  -17.7 °C -0.4 °F /  -18 °C 1031.0 in /  34909.7 hPa ENE 0.6 mph /  1 km/h 4.3 mph /  6.9 km/h 96 % 0.0 in /  0 mm
09:39 0.2 °F /  -17.7 °C -0.4 °F /  -18 °C 1031.0 in /  34909.7 hPa East 1.3 mph /  2.1 km/h 4.3 mph /  6.9 km/h 96 % 0.0 in /  0 mm
09:44 0.3 °F /  -17.6 °C -0.3 °F /  -17.9 °C 1031.0 in /  34909.7 hPa SE 0.5 mph /  0.8 km/h 2.6 mph /  4.2 km/h 96 % 0.0 in /  0 mm
09:49 0.3 °F /  -17.6 °C -0.3 °F /  -17.9 °C 1031.0 in /  34909.7 hPa Calm   1.8 mph /  2.9 km/h 96 % 0.0 in /  0 mm
09:54 0.5 °F /  -17.5 °C -0.1 °F /  -17.8 °C 1031.0 in /  34909.7 hPa Calm   4.7 mph /  7.6 km/h 96 % 0.0 in /  0 mm
09:59 0.7 °F /  -17.4 °C 0.3 °F /  -17.6 °C 1030.0 in /  34875.8 hPa SW 1.9 mph /  3.1 km/h 4.7 mph /  7.6 km/h 97 % 0.0 in /  0 mm
10:04 0.8 °F /  -17.3 °C 0.4 °F /  -17.6 °C 1030.0 in /  34875.8 hPa SW 3.1 mph /  5 km/h 5.0 mph /  8 km/h 97 % 0.0 in /  0 mm
10:10 1.0 °F /  -17.2 °C 0.4 °F /  -17.6 °C 1030.0 in /  34875.8 hPa SSW 2.3 mph /  3.7 km/h 5.0 mph /  8 km/h 96 % 0.0 in /  0 mm
10:15 1.2 °F /  -17.1 °C 0.8 °F /  -17.3 °C 1030.0 in /  34875.8 hPa South 2.3 mph /  3.7 km/h 5.0 mph /  8 km/h 97 % 0.0 in /  0 mm
10:20 1.4 °F /  -17 °C 1.0 °F /  -17.2 °C 1030.0 in /  34875.8 hPa South 1.8 mph /  2.9 km/h 5.0 mph /  8 km/h 97 % 0.0 in /  0 mm
10:25 1.4 °F /  -17 °C 1.0 °F /  -17.2 °C 1030.0 in /  34875.8 hPa SSE 1.6 mph /  2.6 km/h 4.3 mph /  6.9 km/h 97 % 0.0 in /  0 mm
10:30 1.6 °F /  -16.9 °C 1.2 °F /  -17.1 °C 1030.0 in /  34875.8 hPa South 2.9 mph /  4.7 km/h 5.5 mph /  8.9 km/h 97 % 0.0 in /  0 mm
10:35 1.7 °F /  -16.8 °C 1.3 °F /  -17.1 °C 1030.0 in /  34875.8 hPa SSW 4.2 mph /  6.8 km/h 5.8 mph /  9.3 km/h 97 % 0.0 in /  0 mm
10:40 1.9 °F /  -16.7 °C 1.5 °F /  -16.9 °C 1030.0 in /  34875.8 hPa SSW 4.5 mph /  7.2 km/h 6.1 mph /  9.8 km/h 97 % 0.0 in /  0 mm
10:45 2.0 °F /  -16.7 °C 1.6 °F /  -16.9 °C 1030.0 in /  34875.8 hPa SSW 3.5 mph /  5.6 km/h 6.1 mph /  9.8 km/h 97 % 0.0 in /  0 mm
10:50 2.2 °F /  -16.6 °C 1.8 °F /  -16.8 °C 1030.0 in /  34875.8 hPa South 2.4 mph /  3.9 km/h 4.7 mph /  7.6 km/h 97 % 0.0 in /  0 mm
10:55 2.3 °F /  -16.5 °C 1.9 °F /  -16.7 °C 1030.0 in /  34875.8 hPa South 1.8 mph /  2.9 km/h 4.7 mph /  7.6 km/h 97 % 0.0 in /  0 mm
11:00 2.3 °F /  -16.5 °C 1.9 °F /  -16.7 °C 1030.0 in /  34875.8 hPa ESE 1.0 mph /  1.6 km/h 3.2 mph /  5.1 km/h 97 % 0.0 in /  0 mm
11:05 2.4 °F /  -16.4 °C 2.0 °F /  -16.7 °C 1030.0 in /  34875.8 hPa East 1.3 mph /  2.1 km/h 4.0 mph /  6.4 km/h 97 % 0.0 in /  0 mm
11:10 2.4 °F /  -16.4 °C 2.0 °F /  -16.7 °C 1030.0 in /  34875.8 hPa East 1.4 mph /  2.3 km/h 4.0 mph /  6.4 km/h 97 % 0.0 in /  0 mm
11:15 2.6 °F /  -16.3 °C 2.2 °F /  -16.6 °C 1029.0 in /  34841.9 hPa SSE 1.6 mph /  2.6 km/h 4.0 mph /  6.4 km/h 97 % 0.0 in /  0 mm
11:20 2.8 °F /  -16.2 °C 2.4 °F /  -16.4 °C 1029.0 in /  34841.9 hPa South 0.8 mph /  1.3 km/h 4.0 mph /  6.4 km/h 97 % 0.0 in /  0 mm
11:25 2.8 °F /  -16.2 °C 2.4 °F /  -16.4 °C 1029.0 in /  34841.9 hPa NW 0.2 mph /  0.3 km/h 2.1 mph /  3.4 km/h 97 % 0.0 in /  0 mm
11:30 3.0 °F /  -16.1 °C 2.6 °F /  -16.3 °C 1028.0 in /  34808.1 hPa NW 0.2 mph /  0.3 km/h 2.1 mph /  3.4 km/h 97 % 0.0 in /  0 mm
11:35 3.2 °F /  -16 °C 2.8 °F /  -16.2 °C 1028.0 in /  34808.1 hPa Calm     97 % 0.0 in /  0 mm
11:40 3.4 °F /  -15.9 °C 2.9 °F /  -16.2 °C 1028.0 in /  34808.1 hPa SE 1.3 mph /  2.1 km/h 5.0 mph /  8 km/h 97 % 0.0 in /  0 mm
11:45 3.5 °F /  -15.8 °C 3.1 °F /  -16.1 °C 1028.0 in /  34808.1 hPa ESE 2.9 mph /  4.7 km/h 5.5 mph /  8.9 km/h 97 % 0.0 in /  0 mm
11:50 3.7 °F /  -15.7 °C 3.3 °F /  -15.9 °C 1028.0 in /  34808.1 hPa ESE 3.1 mph /  5 km/h 5.5 mph /  8.9 km/h 97 % 0.0 in /  0 mm
11:55 3.8 °F /  -15.7 °C 3.4 °F /  -15.9 °C 1028.0 in /  34808.1 hPa ESE 3.1 mph /  5 km/h 4.7 mph /  7.6 km/h 97 % 0.0 in /  0 mm
12:00 4.1 °F /  -15.5 °C 3.7 °F /  -15.7 °C 1029.0 in /  34841.9 hPa ESE 3.4 mph /  5.5 km/h 5.0 mph /  8 km/h 97 % 0.0 in /  0 mm
12:05 4.4 °F /  -15.3 °C 3.9 °F /  -15.6 °C 1029.0 in /  34841.9 hPa ESE 2.6 mph /  4.2 km/h 5.0 mph /  8 km/h 97 % 0.0 in /  0 mm
12:10 4.7 °F /  -15.2 °C 4.3 °F /  -15.4 °C 1029.0 in /  34841.9 hPa ESE 2.9 mph /  4.7 km/h 5.0 mph /  8 km/h 97 % 0.0 in /  0 mm
12:15 5.0 °F /  -15 °C 4.6 °F /  -15.2 °C 1029.0 in /  34841.9 hPa ESE 3.2 mph /  5.1 km/h 5.0 mph /  8 km/h 97 % 0.0 in /  0 mm
12:20 5.3 °F /  -14.8 °C 4.9 °F /  -15.1 °C 1029.0 in /  34841.9 hPa ESE 3.2 mph /  5.1 km/h 5.8 mph /  9.3 km/h 97 % 0.0 in /  0 mm
12:25 5.7 °F /  -14.6 °C 5.3 °F /  -14.8 °C 1029.0 in /  34841.9 hPa ESE 3.4 mph /  5.5 km/h 5.8 mph /  9.3 km/h 97 % 0.0 in /  0 mm
12:30 5.9 °F /  -14.5 °C 5.4 °F /  -14.8 °C 1028.0 in /  34808.1 hPa ESE 3.2 mph /  5.1 km/h 5.5 mph /  8.9 km/h 97 % 0.0 in /  0 mm
12:35 6.2 °F /  -14.3 °C 5.8 °F /  -14.6 °C 1028.0 in /  34808.1 hPa SE 3.5 mph /  5.6 km/h 5.5 mph /  8.9 km/h 97 % 0.0 in /  0 mm
12:40 6.7 °F /  -14.1 °C 6.3 °F /  -14.3 °C 1028.0 in /  34808.1 hPa SSE 3.2 mph /  5.1 km/h 5.0 mph /  8 km/h 97 % 0.0 in /  0 mm
12:45 7.0 °F /  -13.9 °C 6.6 °F /  -14.1 °C 1028.0 in /  34808.1 hPa SSE 2.7 mph /  4.3 km/h 4.7 mph /  7.6 km/h 97 % 0.0 in /  0 mm
12:50 7.4 °F /  -13.7 °C 6.9 °F /  -13.9 °C 1028.0 in /  34808.1 hPa SE 3.1 mph /  5 km/h 5.0 mph /  8 km/h 97 % 0.0 in /  0 mm
12:55 7.6 °F /  -13.6 °C 7.2 °F /  -13.8 °C 1028.0 in /  34808.1 hPa SE 3.5 mph /  5.6 km/h 5.5 mph /  8.9 km/h 97 % 0.0 in /  0 mm
13:00 7.8 °F /  -13.4 °C 7.3 °F /  -13.7 °C 1028.0 in /  34808.1 hPa ESE 4.2 mph /  6.8 km/h 6.1 mph /  9.8 km/h 97 % 0.0 in /  0 mm
13:05 8.0 °F /  -13.3 °C 7.6 °F /  -13.6 °C 1028.0 in /  34808.1 hPa SE 3.9 mph /  6.3 km/h 6.1 mph /  9.8 km/h 97 % 0.0 in /  0 mm
13:10 8.2 °F /  -13.2 °C 7.8 °F /  -13.4 °C 1027.0 in /  34774.2 hPa SE 2.7 mph /  4.3 km/h 5.8 mph /  9.3 km/h 97 % 0.0 in /  0 mm
13:15 8.4 °F /  -13.1 °C 7.9 °F /  -13.4 °C 1027.0 in /  34774.2 hPa SE 2.4 mph /  3.9 km/h 4.7 mph /  7.6 km/h 97 % 0.0 in /  0 mm
13:20 8.4 °F /  -13.1 °C 7.9 °F /  -13.4 °C 1027.0 in /  34774.2 hPa ESE 3.1 mph /  5 km/h 4.7 mph /  7.6 km/h 97 % 0.0 in /  0 mm
13:25 8.6 °F /  -13 °C 8.2 °F /  -13.2 °C 1026.0 in /  34740.4 hPa ESE 3.7 mph /  6 km/h 5.5 mph /  8.9 km/h 97 % 0.0 in /  0 mm
13:30 8.7 °F /  -12.9 °C 8.3 °F /  -13.2 °C 1026.0 in /  34740.4 hPa ESE 3.9 mph /  6.3 km/h 6.1 mph /  9.8 km/h 97 % 0.0 in /  0 mm
13:35 8.8 °F /  -12.9 °C 8.3 °F /  -13.2 °C 1026.0 in /  34740.4 hPa ESE 4.0 mph /  6.4 km/h 6.1 mph /  9.8 km/h 97 % 0.0 in /  0 mm
13:40 9.0 °F /  -12.8 °C 8.4 °F /  -13.1 °C 1027.0 in /  34774.2 hPa SSE 3.5 mph /  5.6 km/h 6.1 mph /  9.8 km/h 96 % 0.0 in /  0 mm
13:45 9.1 °F /  -12.7 °C 8.5 °F /  -13.1 °C 1027.0 in /  34774.2 hPa SSE 3.2 mph /  5.1 km/h 6.1 mph /  9.8 km/h 96 % 0.0 in /  0 mm
13:50 9.2 °F /  -12.7 °C 8.6 °F /  -13 °C 1027.0 in /  34774.2 hPa South 3.1 mph /  5 km/h 4.7 mph /  7.6 km/h 96 % 0.0 in /  0 mm
13:55 9.4 °F /  -12.6 °C 8.8 °F /  -12.9 °C 1027.0 in /  34774.2 hPa South 2.9 mph /  4.7 km/h 5.0 mph /  8 km/h 96 % 0.0 in /  0 mm
14:00 9.6 °F /  -12.4 °C 9.0 °F /  -12.8 °C 1027.0 in /  34774.2 hPa SSE 2.4 mph /  3.9 km/h 5.0 mph /  8 km/h 96 % 0.0 in /  0 mm
14:05 9.7 °F /  -12.4 °C 9.1 °F /  -12.7 °C 1027.0 in /  34774.2 hPa SSE 2.4 mph /  3.9 km/h 4.7 mph /  7.6 km/h 96 % 0.0 in /  0 mm
14:10 9.8 °F /  -12.3 °C 9.2 °F /  -12.7 °C 1026.0 in /  34740.4 hPa SSE 3.5 mph /  5.6 km/h 5.8 mph /  9.3 km/h 96 % 0.0 in /  0 mm
14:15 10.0 °F /  -12.2 °C 9.2 °F /  -12.7 °C 1026.0 in /  34740.4 hPa SSE 3.9 mph /  6.3 km/h 5.8 mph /  9.3 km/h 95 % 0.0 in /  0 mm
14:20 10.1 °F /  -12.2 °C 9.3 °F /  -12.6 °C 1026.0 in /  34740.4 hPa SSE 4.0 mph /  6.4 km/h 6.1 mph /  9.8 km/h 95 % 0.0 in /  0 mm
14:25 10.2 °F /  -12.1 °C 9.4 °F /  -12.6 °C 1026.0 in /  34740.4 hPa SSE 4.3 mph /  6.9 km/h 7.6 mph /  12.2 km/h 95 % 0.0 in /  0 mm
14:30 10.4 °F /  -12 °C 9.5 °F /  -12.5 °C 1026.0 in /  34740.4 hPa SSE 4.2 mph /  6.8 km/h 7.6 mph /  12.2 km/h 94 % 0.0 in /  0 mm
14:35 10.5 °F /  -11.9 °C 9.6 °F /  -12.4 °C 1026.0 in /  34740.4 hPa SSE 3.5 mph /  5.6 km/h 6.1 mph /  9.8 km/h 94 % 0.0 in /  0 mm
14:40 10.6 °F /  -11.9 °C 9.7 °F /  -12.4 °C 1026.0 in /  34740.4 hPa SSE 3.1 mph /  5 km/h 6.1 mph /  9.8 km/h 94 % 0.0 in /  0 mm
14:45 10.8 °F /  -11.8 °C 9.7 °F /  -12.4 °C 1026.0 in /  34740.4 hPa South 1.8 mph /  2.9 km/h 4.7 mph /  7.6 km/h 93 % 0.0 in /  0 mm
14:50 10.8 °F /  -11.8 °C 9.7 °F /  -12.4 °C 1026.0 in /  34740.4 hPa South 0.8 mph /  1.3 km/h 4.0 mph /  6.4 km/h 93 % 0.0 in /  0 mm
14:55 11.1 °F /  -11.6 °C 9.8 °F /  -12.3 °C 1024.9 in /  34703.1 hPa South 1.9 mph /  3.1 km/h 7.6 mph /  12.2 km/h 92 % 0.0 in /  0 mm
15:00 11.3 °F /  -11.5 °C 10.1 °F /  -12.2 °C 1024.9 in /  34703.1 hPa SSW 4.3 mph /  6.9 km/h 7.6 mph /  12.2 km/h 92 % 0.0 in /  0 mm
15:05 11.4 °F /  -11.4 °C 10.2 °F /  -12.1 °C 1024.9 in /  34703.1 hPa SSW 5.0 mph /  8 km/h 7.6 mph /  12.2 km/h 92 % 0.0 in /  0 mm
15:10 11.4 °F /  -11.4 °C 10.0 °F /  -12.2 °C 1024.9 in /  34703.1 hPa SSW 4.3 mph /  6.9 km/h 7.9 mph /  12.7 km/h 91 % 0.0 in /  0 mm
15:15 11.2 °F /  -11.6 °C 9.6 °F /  -12.4 °C 1024.9 in /  34703.1 hPa SW 2.6 mph /  4.2 km/h 7.9 mph /  12.7 km/h 90 % 0.0 in /  0 mm
15:20 11.2 °F /  -11.6 °C 9.4 °F /  -12.6 °C 1024.9 in /  34703.1 hPa NW 0.5 mph /  0.8 km/h 3.5 mph /  5.6 km/h 89 % 0.0 in /  0 mm
15:25 11.1 °F /  -11.6 °C 9.2 °F /  -12.7 °C 1024.9 in /  34703.1 hPa North 0.2 mph /  0.3 km/h   88 % 0.0 in /  0 mm
15:30 10.7 °F /  -11.8 °C 8.6 °F /  -13 °C 1024.9 in /  34703.1 hPa WNW 0.6 mph /  1 km/h 4.7 mph /  7.6 km/h 87 % 0.0 in /  0 mm
15:35 10.4 °F /  -12 °C 8.2 °F /  -13.2 °C 1024.9 in /  34703.1 hPa WNW 0.8 mph /  1.3 km/h 4.7 mph /  7.6 km/h 86 % 0.0 in /  0 mm
15:40 10.0 °F /  -12.2 °C 7.6 °F /  -13.6 °C 1024.9 in /  34703.1 hPa WNW 0.5 mph /  0.8 km/h 3.2 mph /  5.1 km/h 85 % 0.0 in /  0 mm
15:45 9.5 °F /  -12.5 °C 7.1 °F /  -13.8 °C 1024.9 in /  34703.1 hPa WNW 1.0 mph /  1.6 km/h 4.3 mph /  6.9 km/h 85 % 0.0 in /  0 mm
15:50 9.2 °F /  -12.7 °C 6.6 °F /  -14.1 °C 1024.9 in /  34703.1 hPa WNW 1.0 mph /  1.6 km/h 4.3 mph /  6.9 km/h 84 % 0.0 in /  0 mm
15:55 8.8 °F /  -12.9 °C 6.2 °F /  -14.3 °C 1026.0 in /  34740.4 hPa NW 0.5 mph /  0.8 km/h 4.7 mph /  7.6 km/h 84 % 0.0 in /  0 mm
16:00 8.5 °F /  -13.1 °C 5.8 °F /  -14.6 °C 1026.0 in /  34740.4 hPa NW 0.5 mph /  0.8 km/h 4.7 mph /  7.6 km/h 83 % 0.0 in /  0 mm
16:05 8.2 °F /  -13.2 °C 5.3 °F /  -14.8 °C 1026.0 in /  34740.4 hPa North 0.2 mph /  0.3 km/h   82 % 0.0 in /  0 mm
16:10 7.9 °F /  -13.4 °C 5.0 °F /  -15 °C 1024.9 in /  34703.1 hPa Calm     82 % 0.0 in /  0 mm
16:15 7.7 °F /  -13.5 °C 4.8 °F /  -15.1 °C 1024.9 in /  34703.1 hPa NW 1.0 mph /  1.6 km/h 5.8 mph /  9.3 km/h 82 % 0.0 in /  0 mm
16:20 7.5 °F /  -13.6 °C 4.6 °F /  -15.2 °C 1024.9 in /  34703.1 hPa NW 2.6 mph /  4.2 km/h 5.8 mph /  9.3 km/h 82 % 0.0 in /  0 mm
16:25 7.3 °F /  -13.7 °C 4.4 °F /  -15.3 °C 1024.9 in /  34703.1 hPa WNW 2.3 mph /  3.7 km/h 5.5 mph /  8.9 km/h 82 % 0.0 in /  0 mm
16:30 7.0 °F /  -13.9 °C 4.1 °F /  -15.5 °C 1024.9 in /  34703.1 hPa WNW 0.6 mph /  1 km/h 4.0 mph /  6.4 km/h 82 % 0.0 in /  0 mm
16:35 6.7 °F /  -14.1 °C 3.8 °F /  -15.7 °C 1024.9 in /  34703.1 hPa NW 0.5 mph /  0.8 km/h 4.7 mph /  7.6 km/h 82 % 0.0 in /  0 mm
16:41 6.5 °F /  -14.2 °C 3.7 °F /  -15.7 °C 1024.9 in /  34703.1 hPa NW 1.0 mph /  1.6 km/h 4.7 mph /  7.6 km/h 82 % 0.0 in /  0 mm
16:47 6.2 °F /  -14.3 °C 3.3 °F /  -15.9 °C 1024.9 in /  34703.1 hPa Calm     82 % 0.0 in /  0 mm
16:52 5.9 °F /  -14.5 °C 3.1 °F /  -16.1 °C 1024.9 in /  34703.1 hPa Calm   1.4 mph /  2.3 km/h 82 % 0.0 in /  0 mm
16:57 5.8 °F /  -14.6 °C 2.9 °F /  -16.2 °C 1023.9 in /  34669.3 hPa Calm   1.4 mph /  2.3 km/h 82 % 0.0 in /  0 mm
17:02 5.6 °F /  -14.7 °C 2.8 °F /  -16.2 °C 1023.9 in /  34669.3 hPa Calm     82 % 0.0 in /  0 mm
17:07 5.3 °F /  -14.8 °C 2.5 °F /  -16.4 °C 1023.9 in /  34669.3 hPa Calm     82 % 0.0 in /  0 mm
17:12 5.3 °F /  -14.8 °C 2.5 °F /  -16.4 °C 1023.9 in /  34669.3 hPa Calm     82 % 0.0 in /  0 mm
17:17 5.0 °F /  -15 °C 2.2 °F /  -16.6 °C 1023.9 in /  34669.3 hPa Calm     82 % 0.0 in /  0 mm
17:22 4.7 °F /  -15.2 °C 2.1 °F /  -16.6 °C 1023.9 in /  34669.3 hPa Calm   1.4 mph /  2.3 km/h 83 % 0.0 in /  0 mm
17:27 4.6 °F /  -15.2 °C 1.9 °F /  -16.7 °C 1024.9 in /  34703.1 hPa NW 0.3 mph /  0.5 km/h 3.5 mph /  5.6 km/h 83 % 0.0 in /  0 mm
17:32 4.4 °F /  -15.3 °C 1.8 °F /  -16.8 °C 1024.9 in /  34703.1 hPa NW 0.3 mph /  0.5 km/h 3.5 mph /  5.6 km/h 83 % 0.0 in /  0 mm
17:38 4.3 °F /  -15.4 °C 1.7 °F /  -16.8 °C 1024.9 in /  34703.1 hPa Calm     83 % 0.0 in /  0 mm
17:43 4.1 °F /  -15.5 °C 1.4 °F /  -17 °C 1023.9 in /  34669.3 hPa NW 0.3 mph /  0.5 km/h 4.0 mph /  6.4 km/h 83 % 0.0 in /  0 mm
17:48 3.9 °F /  -15.6 °C 1.3 °F /  -17.1 °C 1023.9 in /  34669.3 hPa NW 0.5 mph /  0.8 km/h 4.0 mph /  6.4 km/h 83 % 0.0 in /  0 mm
17:53 3.7 °F /  -15.7 °C 1.2 °F /  -17.1 °C 1023.9 in /  34669.3 hPa North 0.2 mph /  0.3 km/h   84 % 0.0 in /  0 mm
17:58 3.6 °F /  -15.8 °C 1.2 °F /  -17.1 °C 1023.9 in /  34669.3 hPa Calm     84 % 0.0 in /  0 mm
18:03 3.5 °F /  -15.8 °C 1.1 °F /  -17.2 °C 1023.9 in /  34669.3 hPa Calm     84 % 0.0 in /  0 mm
18:08 3.4 °F /  -15.9 °C 0.9 °F /  -17.3 °C 1023.9 in /  34669.3 hPa Calm     84 % 0.0 in /  0 mm
18:13 3.3 °F /  -15.9 °C 0.8 °F /  -17.3 °C 1023.9 in /  34669.3 hPa Calm     84 % 0.0 in /  0 mm
18:18 3.1 °F /  -16.1 °C 0.7 °F /  -17.4 °C 1023.9 in /  34669.3 hPa Calm     84 % 0.0 in /  0 mm
18:23 3.0 °F /  -16.1 °C 0.6 °F /  -17.4 °C 1023.9 in /  34669.3 hPa NW 0.2 mph /  0.3 km/h 3.5 mph /  5.6 km/h 84 % 0.0 in /  0 mm
18:28 2.8 °F /  -16.2 °C 0.5 °F /  -17.5 °C 1023.9 in /  34669.3 hPa NW 0.2 mph /  0.3 km/h 3.5 mph /  5.6 km/h 85 % 0.0 in /  0 mm
18:33 2.8 °F /  -16.2 °C 0.5 °F /  -17.5 °C 1023.9 in /  34669.3 hPa Calm     85 % 0.0 in /  0 mm
18:38 2.6 °F /  -16.3 °C 0.3 °F /  -17.6 °C 1023.9 in /  34669.3 hPa Calm     85 % 0.0 in /  0 mm
18:43 2.6 °F /  -16.3 °C 0.3 °F /  -17.6 °C 1023.9 in /  34669.3 hPa Calm     85 % 0.0 in /  0 mm
18:48 2.4 °F /  -16.4 °C 0.1 °F /  -17.7 °C 1023.9 in /  34669.3 hPa Calm     85 % 0.0 in /  0 mm
18:53 2.3 °F /  -16.5 °C 0.1 °F /  -17.7 °C 1023.9 in /  34669.3 hPa Calm     85 % 0.0 in /  0 mm
18:58 2.3 °F /  -16.5 °C 0.2 °F /  -17.7 °C 1023.9 in /  34669.3 hPa Calm     86 % 0.0 in /  0 mm
19:03 2.2 °F /  -16.6 °C 0.1 °F /  -17.7 °C 1023.9 in /  34669.3 hPa Calm     86 % 0.0 in /  0 mm
19:08 2.1 °F /  -16.6 °C 0.0 °F /  -17.8 °C 1023.9 in /  34669.3 hPa Calm     86 % 0.0 in /  0 mm
19:13 2.0 °F /  -16.7 °C -0.1 °F /  -17.8 °C 1023.9 in /  34669.3 hPa Calm     86 % 0.0 in /  0 mm
19:18 2.0 °F /  -16.7 °C -0.1 °F /  -17.8 °C 1023.9 in /  34669.3 hPa Calm     86 % 0.0 in /  0 mm
19:23 1.9 °F /  -16.7 °C -0.1 °F /  -17.8 °C 1023.9 in /  34669.3 hPa Calm     87 % 0.0 in /  0 mm
19:28 1.8 °F /  -16.8 °C -0.1 °F /  -17.8 °C 1023.9 in /  34669.3 hPa Calm     87 % 0.0 in /  0 mm
19:33 1.8 °F /  -16.8 °C -0.1 °F /  -17.8 °C 1023.9 in /  34669.3 hPa Calm     87 % 0.0 in /  0 mm
19:38 1.7 °F /  -16.8 °C -0.2 °F /  -17.9 °C 1023.9 in /  34669.3 hPa Calm     87 % 0.0 in /  0 mm
19:43 1.6 °F /  -16.9 °C -0.3 °F /  -17.9 °C 1023.9 in /  34669.3 hPa Calm     87 % 0.0 in /  0 mm
19:48 1.5 °F /  -16.9 °C -0.4 °F /  -18 °C 1023.9 in /  34669.3 hPa Calm     87 % 0.0 in /  0 mm
19:53 1.4 °F /  -17 °C -0.6 °F /  -18.1 °C 1023.9 in /  34669.3 hPa Calm     87 % 0.0 in /  0 mm
19:58 1.3 °F /  -17.1 °C -0.6 °F /  -18.1 °C 1023.9 in /  34669.3 hPa Calm     87 % 0.0 in /  0 mm
20:03 1.3 °F /  -17.1 °C -0.6 °F /  -18.1 °C 1023.9 in /  34669.3 hPa Calm     87 % 0.0 in /  0 mm
20:08 1.2 °F /  -17.1 °C -0.7 °F /  -18.2 °C 1023.9 in /  34669.3 hPa Calm     87 % 0.0 in /  0 mm
20:13 1.1 °F /  -17.2 °C -0.8 °F /  -18.2 °C 1023.9 in /  34669.3 hPa Calm     87 % 0.0 in /  0 mm
20:18 1.0 °F /  -17.2 °C -0.8 °F /  -18.2 °C 1023.9 in /  34669.3 hPa Calm     88 % 0.0 in /  0 mm
20:24 1.0 °F /  -17.2 °C -0.8 °F /  -18.2 °C 1023.9 in /  34669.3 hPa Calm     88 % 0.0 in /  0 mm
20:28 0.9 °F /  -17.3 °C -0.9 °F /  -18.3 °C 1023.9 in /  34669.3 hPa Calm     88 % 0.0 in /  0 mm
20:33 0.9 °F /  -17.3 °C -0.9 °F /  -18.3 °C 1023.9 in /  34669.3 hPa Calm     88 % 0.0 in /  0 mm
20:39 0.8 °F /  -17.3 °C -0.9 °F /  -18.3 °C 1023.9 in /  34669.3 hPa Calm     88 % 0.0 in /  0 mm
20:43 0.8 °F /  -17.3 °C -0.9 °F /  -18.3 °C 1022.9 in /  34635.4 hPa Calm     88 % 0.0 in /  0 mm
20:49 0.7 °F /  -17.4 °C -1.1 °F /  -18.4 °C 1022.9 in /  34635.4 hPa NNW 0.3 mph /  0.5 km/h 3.2 mph /  5.1 km/h 88 % 0.0 in /  0 mm
20:54 0.6 °F /  -17.4 °C -1.2 °F /  -18.4 °C 1022.9 in /  34635.4 hPa NNW 1.1 mph /  1.8 km/h 3.5 mph /  5.6 km/h 88 % 0.0 in /  0 mm
20:59 0.6 °F /  -17.4 °C -1.0 °F /  -18.3 °C 1022.9 in /  34635.4 hPa NNW 1.0 mph /  1.6 km/h 3.5 mph /  5.6 km/h 89 % 0.0 in /  0 mm
21:04 0.6 °F /  -17.4 °C -1.0 °F /  -18.3 °C 1022.9 in /  34635.4 hPa Calm     89 % 0.0 in /  0 mm
21:08 0.5 °F /  -17.5 °C -1.1 °F /  -18.4 °C 1022.9 in /  34635.4 hPa Calm     89 % 0.0 in /  0 mm
21:13 0.5 °F /  -17.5 °C -1.1 °F /  -18.4 °C 1022.9 in /  34635.4 hPa Calm     89 % 0.0 in /  0 mm
21:19 0.4 °F /  -17.6 °C -1.2 °F /  -18.4 °C 1022.9 in /  34635.4 hPa Calm     89 % 0.0 in /  0 mm
21:24 0.4 °F /  -17.6 °C -1.2 °F /  -18.4 °C 1022.9 in /  34635.4 hPa Calm     89 % 0.0 in /  0 mm
21:29 0.3 °F /  -17.6 °C -1.3 °F /  -18.5 °C 1022.9 in /  34635.4 hPa Calm     89 % 0.0 in /  0 mm
21:34 0.3 °F /  -17.6 °C -1.3 °F /  -18.5 °C 1022.9 in /  34635.4 hPa Calm     89 % 0.0 in /  0 mm
21:39 0.3 °F /  -17.6 °C -1.3 °F /  -18.5 °C 1022.9 in /  34635.4 hPa Calm     89 % 0.0 in /  0 mm
21:44 0.2 °F /  -17.7 °C -1.4 °F /  -18.6 °C 1021.9 in /  34601.5 hPa Calm     89 % 0.0 in /  0 mm
21:49 0.1 °F /  -17.7 °C -1.5 °F /  -18.6 °C 1021.9 in /  34601.5 hPa Calm     89 % 0.0 in /  0 mm
21:54 0.1 °F /  -17.7 °C -1.5 °F /  -18.6 °C 1021.9 in /  34601.5 hPa Calm     89 % 0.0 in /  0 mm
21:59 0.0 °F /  -17.8 °C -1.6 °F /  -18.7 °C 1022.9 in /  34635.4 hPa Calm     89 % 0.0 in /  0 mm
22:04 0.0 °F /  -17.8 °C -1.6 °F /  -18.7 °C 1022.9 in /  34635.4 hPa Calm     89 % 0.0 in /  0 mm
22:09 -0.1 °F /  -17.8 °C -1.7 °F /  -18.7 °C 1022.9 in /  34635.4 hPa Calm     89 % 0.0 in /  0 mm
22:14 -0.1 °F /  -17.8 °C -1.7 °F /  -18.7 °C 1022.9 in /  34635.4 hPa Calm     89 % 0.0 in /  0 mm
22:16 -0.2 °F /  -17.9 °C -1.8 °F /  -18.8 °C 1022.9 in /  34635.4 hPa Calm     89 % 0.0 in /  0 mm
22:21 -0.2 °F /  -17.9 °C -1.7 °F /  -18.7 °C 1022.9 in /  34635.4 hPa Calm     90 % 0.0 in /  0 mm
22:26 -0.3 °F /  -17.9 °C -1.7 °F /  -18.7 °C 1021.9 in /  34601.5 hPa Calm     90 % 0.0 in /  0 mm
22:31 -0.3 °F /  -17.9 °C -1.7 °F /  -18.7 °C 1021.9 in /  34601.5 hPa Calm     90 % 0.0 in /  0 mm
22:36 -0.4 °F /  -18 °C -1.8 °F /  -18.8 °C 1021.9 in /  34601.5 hPa Calm     90 % 0.0 in /  0 mm
22:41 -0.5 °F /  -18.1 °C -1.9 °F /  -18.8 °C 1023.9 in /  34669.3 hPa Calm     90 % 0.0 in /  0 mm
22:46 -0.5 °F /  -18.1 °C -1.9 °F /  -18.8 °C 1023.9 in /  34669.3 hPa Calm     90 % 0.0 in /  0 mm
22:51 -0.5 °F /  -18.1 °C -1.9 °F /  -18.8 °C 1023.9 in /  34669.3 hPa Calm     90 % 0.0 in /  0 mm
22:56 -0.6 °F /  -18.1 °C -2.1 °F /  -18.9 °C 1022.9 in /  34635.4 hPa Calm     90 % 0.0 in /  0 mm
23:01 -0.6 °F /  -18.1 °C -2.1 °F /  -18.9 °C 1022.9 in /  34635.4 hPa Calm     90 % 0.0 in /  0 mm
23:06 -0.7 °F /  -18.2 °C -2.1 °F /  -18.9 °C 1022.9 in /  34635.4 hPa Calm     90 % 0.0 in /  0 mm
23:11 -0.7 °F /  -18.2 °C -2.1 °F /  -18.9 °C 1022.9 in /  34635.4 hPa Calm     90 % 0.0 in /  0 mm
23:16 -0.7 °F /  -18.2 °C -2.1 °F /  -18.9 °C 1022.9 in /  34635.4 hPa Calm     90 % 0.0 in /  0 mm
23:21 -0.8 °F /  -18.2 °C -2.2 °F /  -19 °C 1022.9 in /  34635.4 hPa Calm     90 % 0.0 in /  0 mm
23:26 -0.8 °F /  -18.2 °C -2.2 °F /  -19 °C 1022.9 in /  34635.4 hPa Calm     90 % 0.0 in /  0 mm
23:31 -0.8 °F /  -18.2 °C -2.2 °F /  -19 °C 1022.9 in /  34635.4 hPa Calm     90 % 0.0 in /  0 mm
23:36 -0.8 °F /  -18.2 °C -2.2 °F /  -19 °C 1022.9 in /  34635.4 hPa Calm     90 % 0.0 in /  0 mm
23:41 -0.8 °F /  -18.2 °C -2.2 °F /  -19 °C 1022.9 in /  34635.4 hPa Calm     90 % 0.0 in /  0 mm
23:46 -0.9 °F /  -18.3 °C -2.3 °F /  -19.1 °C 1022.9 in /  34635.4 hPa Calm     90 % 0.0 in /  0 mm
23:51 -0.9 °F /  -18.3 °C -2.3 °F /  -19.1 °C 1022.9 in /  34635.4 hPa Calm     90 % 0.0 in /  0 mm
23:56 -0.9 °F /  -18.3 °C -2.2 °F /  -19 °C 1022.9 in /  34635.4 hPa Calm     91 % 0.0 in /  0 mm
Vremenska postaja Senovo
Podatki zbrani iz Weather Underground - 3 mb

Script developed by  Jim McMurry - jmcmurry@mwt.net Adapted for the template by  Wim van der Kuil - Leuven-Template.eu

Vremenski podatki so objavljeni na:

European Weather Network

WeatherCloud

Weather Underground

AWEKAS

HAMweather, WeatherForYou, PWS Weather

MapView

Geostik

Slovenia weather network

Oprema, ki se uporablja:

Vremenski program
Cumulus

Vremenski server
Asus

Cumulus

Asus